Map

Track Data

SID SEASON NUMBER BASIN SUBBASIN NAME ISO_TIME NATURE LAT LON WMO_WIND WMO_PRES WMO_AGENCY TRACK_TYPE DIST2LAND LANDFALL IFLAG USA_AGENCY USA_ATCF_ID USA_LAT USA_LON USA_RECORD USA_STATUS USA_WIND USA_PRES USA_SSHS USA_R34_NE USA_R34_SE USA_R34_SW USA_R34_NW USA_R50_NE USA_R50_SE USA_R50_SW USA_R50_NW USA_R64_NE USA_R64_SE USA_R64_SW USA_R64_NW USA_POCI USA_ROCI USA_RMW USA_EYE TOKYO_LAT TOKYO_LON TOKYO_GRADE TOKYO_WIND TOKYO_PRES TOKYO_R50_DIR TOKYO_R50_LONG TOKYO_R50_SHORT TOKYO_R30_DIR TOKYO_R30_LONG TOKYO_R30_SHORT TOKYO_LAND CMA_LAT CMA_LON CMA_CAT CMA_WIND CMA_PRES HKO_LAT HKO_LON HKO_CAT HKO_WIND HKO_PRES NEWDELHI_LAT NEWDELHI_LON NEWDELHI_GRADE NEWDELHI_WIND NEWDELHI_PRES NEWDELHI_CI NEWDELHI_DP NEWDELHI_POCI REUNION_LAT REUNION_LON REUNION_TYPE REUNION_WIND REUNION_PRES REUNION_TNUM REUNION_CI REUNION_RMW REUNION_R34_NE REUNION_R34_SE REUNION_R34_SW REUNION_R34_NW REUNION_R50_NE REUNION_R50_SE REUNION_R50_SW REUNION_R50_NW REUNION_R64_NE REUNION_R64_SE REUNION_R64_SW REUNION_R64_NW BOM_LAT BOM_LON BOM_TYPE BOM_WIND BOM_PRES BOM_TNUM BOM_CI BOM_RMW BOM_R34_NE BOM_R34_SE BOM_R34_SW BOM_R34_NW BOM_R50_NE BOM_R50_SE BOM_R50_SW BOM_R50_NW BOM_R64_NE BOM_R64_SE BOM_R64_SW BOM_R64_NW BOM_ROCI BOM_POCI BOM_EYE BOM_POS_METHOD BOM_PRES_METHOD NADI_LAT NADI_LON NADI_CAT NADI_WIND NADI_PRES WELLINGTON_LAT WELLINGTON_LON WELLINGTON_WIND WELLINGTON_PRES DS824_LAT DS824_LON DS824_STAGE DS824_WIND DS824_PRES TD9636_LAT TD9636_LON TD9636_STAGE TD9636_WIND TD9636_PRES TD9635_LAT TD9635_LON TD9635_WIND TD9635_PRES TD9635_ROCI NEUMANN_LAT NEUMANN_LON NEUMANN_CLASS NEUMANN_WIND NEUMANN_PRES MLC_LAT MLC_LON MLC_CLASS MLC_WIND MLC_PRES USA_GUST BOM_GUST BOM_GUST_PER REUNION_GUST REUNION_GUST_PER USA_SEAHGT USA_SEARAD_NE USA_SEARAD_SE USA_SEARAD_SW USA_SEARAD_NW STORM_SPEED STORM_DIR
1920040S17060 1920 5 SI MM NOT_NAMED 1920-02-09 00:00:00 TS -17.2000 60.0000 main 404 386 _________O____ -1 -17.2000 60.0000 TC 25 7 261
1920040S17060 1920 5 SI MM NOT_NAMED 1920-02-09 03:00:00 TS -17.2526 59.6476 main 371 355 _________P____ -1 -17.2526 59.6476 TC 25 7 261
1920040S17060 1920 5 SI MM NOT_NAMED 1920-02-09 06:00:00 TS -17.3000 59.3000 main 355 341 _________O____ -1 -17.3000 59.3000 TC 25 7 262
1920040S17060 1920 5 SI MM NOT_NAMED 1920-02-09 09:00:00 TS -17.3424 58.9574 main 341 316 _________P____ -1 -17.3424 58.9574 TC 25 7 261
1920040S17060 1920 5 SI MM NOT_NAMED 1920-02-09 12:00:00 TS -17.4000 58.6000 main 316 295 _________O____ -1 -17.4000 58.6000 TC 25 7 259
1920040S17060 1920 5 SI MM NOT_NAMED 1920-02-09 15:00:00 TS -17.4850 58.2075 main 295 279 _________P____ -1 -17.4850 58.2075 TC 25 8 255
1920040S17060 1920 5 SI MM NOT_NAMED 1920-02-09 18:00:00 TS -17.6000 57.8000 main 279 268 _________O____ -1 -17.6000 57.8000 TC 25 8 251
1920040S17060 1920 5 SI MM NOT_NAMED 1920-02-09 21:00:00 TS -17.7499 57.4000 main 268 249 _________P____ -1 -17.7499 57.4000 TC 25 8 248
1920040S17060 1920 5 SI MM NOT_NAMED 1920-02-10 00:00:00 TS -17.9000 57.0000 main 251 246 _________O____ -1 -17.9000 57.0000 TC 25 8 252
1920040S17060 1920 5 SI MM NOT_NAMED 1920-02-10 03:00:00 TS -18.0000 56.5924 main 253 251 _________P____ -1 -18.0000 56.5924 TC 25 8 255
1920040S17060 1920 5 SI MM NOT_NAMED 1920-02-10 06:00:00 TS -18.1000 56.2000 main 262 258 _________O____ -1 -18.1000 56.2000 TC 25 8 251
1920040S17060 1920 5 SI MM NOT_NAMED 1920-02-10 09:00:00 TS -18.2424 55.8425 main 277 269 _________P____ -1 -18.2424 55.8425 TC 25 7 246
1920040S17060 1920 5 SI MM NOT_NAMED 1920-02-10 12:00:00 TS -18.4000 55.5000 main 283 279 _________O____ -1 -18.4000 55.5000 TC 25 7 245
1920040S17060 1920 5 SI MM NOT_NAMED 1920-02-10 15:00:00 TS -18.5499 55.1499 main 280 260 _________P____ -1 -18.5499 55.1499 TC 25 7 246
1920040S17060 1920 5 SI MM NOT_NAMED 1920-02-10 18:00:00 TS -18.7000 54.8000 main 262 253 _________O____ -1 -18.7000 54.8000 TC 25 7 247
1920040S17060 1920 5 SI MM NOT_NAMED 1920-02-10 21:00:00 TS -18.8425 54.4275 main 263 251 _________P____ -1 -18.8425 54.4275 TC 25 7 246
1920040S17060 1920 5 SI MM NOT_NAMED 1920-02-11 00:00:00 TS -19.0000 54.1000 main 256 248 _________O____ -1 -19.0000 54.1000 TC 25 6 238
1920040S17060 1920 5 SI MM NOT_NAMED 1920-02-11 03:00:00 TS -19.1774 53.8699 main 248 244 _________P____ -1 -19.1774 53.8699 TC 25 6 223
1920040S17060 1920 5 SI MM NOT_NAMED 1920-02-11 06:00:00 TS -19.4000 53.7000 main 244 236 _________O____ -1 -19.4000 53.7000 TC 25 6 212
1920040S17060 1920 5 SI MM NOT_NAMED 1920-02-11 09:00:00 TS -19.7000 53.5276 main 236 222 _________P____ -1 -19.7000 53.5276 TC 25 7 205
1920040S17060 1920 5 SI MM NOT_NAMED 1920-02-11 12:00:00 TS -20.0000 53.4000 main 224 218 _________O____ -1 -20.0000 53.4000 TC 25 6 200
1920040S17060 1920 5 SI MM NOT_NAMED 1920-02-11 15:00:00 TS -20.2150 53.3200 main 221 212 _________P____ -1 -20.2150 53.3200 TC 25 4 193
1920040S17060 1920 5 SI MM NOT_NAMED 1920-02-11 18:00:00 TS -20.4000 53.3000 main 212 205 _________O____ -1 -20.4000 53.3000 TC 25 4 183
1920040S17060 1920 5 SI MM NOT_NAMED 1920-02-11 21:00:00 TS -20.6000 53.3125 main 205 189 _________P____ -1 -20.6000 53.3125 TC 25 4 167
1920040S17060 1920 5 SI MM NOT_NAMED 1920-02-12 00:00:00 TS -20.8000 53.4000 main 189 166 _________O____ -1 -20.8000 53.4000 TC 25 5 148
1920040S17060 1920 5 SI MM NOT_NAMED 1920-02-12 03:00:00 TS -21.0000 53.5775 main 166 145 _________P____ -1 -21.0000 53.5775 TC 25 5 137
1920040S17060 1920 5 SI MM NOT_NAMED 1920-02-12 06:00:00 TS -21.2000 53.8000 main 145 128 _________O____ -1 -21.2000 53.8000 TC 25 6 136
1920040S17060 1920 5 SI MM NOT_NAMED 1920-02-12 09:00:00 TS -21.4074 53.9925 main 128 117 _________P____ -1 -21.4074 53.9925 TC 25 5 137
1920040S17060 1920 5 SI MM NOT_NAMED 1920-02-12 12:00:00 TS -21.6000 54.2000 main 117 103 _________O____ -1 -21.6000 54.2000 TC 25 5 130
1920040S17060 1920 5 SI MM NOT_NAMED 1920-02-12 15:00:00 TS -21.7575 54.4351 main 108 91 _________P____ -1 -21.7575 54.4351 TC 25 6 123
1920040S17060 1920 5 SI MM NOT_NAMED 1920-02-12 18:00:00 TS -21.9000 54.7000 main 91 84 _________O____ -1 -21.9000 54.7000 TC 25 5 121
1920040S17060 1920 5 SI MM NOT_NAMED 1920-02-12 21:00:00 TS -22.0268 54.9181 main 88 88 _________P____ -1 -22.0268 54.9181 TC 25 6 118
1920040S17060 1920 5 SI MM NOT_NAMED 1920-02-13 00:00:00 TS -22.2000 55.3000 main 94 91 _________O____ -1 -22.2000 55.3000 TC 25 11 114
1920040S17060 1920 5 SI MM NOT_NAMED 1920-02-13 03:00:00 TS -22.4854 56.0171 main 129 129 _________P____ -1 -22.4854 56.0171 TC 25 16 112
1920040S17060 1920 5 SI MM NOT_NAMED 1920-02-13 06:00:00 TS -22.8000 56.9000 main 202 202 _________O____ -1 -22.8000 56.9000 TC 25 17 110
1920040S17060 1920 5 SI MM NOT_NAMED 1920-02-13 09:00:00 TS -23.0652 57.7801 main 287 287 _________P____ -1 -23.0652 57.7801 TC 25 16 108
1920040S17060 1920 5 SI MM NOT_NAMED 1920-02-13 12:00:00 TS -23.3000 58.6000 main 326 326 _________O____ -1 -23.3000 58.6000 TC 25 14 109
1920040S17060 1920 5 SI MM NOT_NAMED 1920-02-13 15:00:00 TS -23.5143 59.2379 main 369 369 _________P____ -1 -23.5143 59.2379 TC 25 12 110
1920040S17060 1920 5 SI MM NOT_NAMED 1920-02-13 18:00:00 TS -23.7000 59.8000 main 418 418 _________O____ -1 -23.7000 59.8000 TC 25 11 108
1920040S17060 1920 5 SI MM NOT_NAMED 1920-02-13 21:00:00 TS -23.8582 60.3872 main 470 470 _________P____ -1 -23.8582 60.3872 TC 25 11 105
1920040S17060 1920 5 SI MM NOT_NAMED 1920-02-14 00:00:00 TS -24.0000 61.0000 main 517 _________O____ -1 -24.0000 61.0000 TC 25 12 104

About IBTrACS Database

This database is a web-friendly format of International Best Track Archive for Climate Stewardship (IBTrACS), a global best track data archive curated by NOAA dating back to 1842.

Updated: 2021-10-27